sensor_id;sensor_type;location;lat;lon;timestamp;pressure;altitude;pressure_sealevel;temperature
48894;BMP280;34710;35.798;139.446;2023-06-24T00:02:15;100428.31;;;30.66
48894;BMP280;34710;35.798;139.446;2023-06-24T00:04:41;100427.10;;;31.68
48894;BMP280;34710;35.798;139.446;2023-06-24T00:07:06;100426.00;;;32.48
48894;BMP280;34710;35.798;139.446;2023-06-24T00:09:31;100433.23;;;32.64
48894;BMP280;34710;35.798;139.446;2023-06-24T00:11:56;100434.07;;;31.93
48894;BMP280;34710;35.798;139.446;2023-06-24T00:14:21;100429.56;;;32.87
48894;BMP280;34710;35.798;139.446;2023-06-24T00:16:46;100426.77;;;32.43
48894;BMP280;34710;35.798;139.446;2023-06-24T00:19:11;100433.27;;;29.61
48894;BMP280;34710;35.798;139.446;2023-06-24T00:21:36;100427.76;;;29.97
48894;BMP280;34710;35.798;139.446;2023-06-24T00:24:01;100424.09;;;27.38
48894;BMP280;34710;35.798;139.446;2023-06-24T00:26:26;100420.91;;;29.06
48894;BMP280;34710;35.798;139.446;2023-06-24T00:28:51;100411.37;;;30.27
48894;BMP280;34710;35.798;139.446;2023-06-24T00:31:16;100414.06;;;30.31
48894;BMP280;34710;35.798;139.446;2023-06-24T00:33:41;100412.44;;;29.25
48894;BMP280;34710;35.798;139.446;2023-06-24T00:36:07;100409.04;;;31.03
48894;BMP280;34710;35.798;139.446;2023-06-24T00:38:31;100408.63;;;31.31
48894;BMP280;34710;35.798;139.446;2023-06-24T00:40:57;100408.78;;;27.17
48894;BMP280;34710;35.798;139.446;2023-06-24T00:43:22;100410.09;;;27.65
48894;BMP280;34710;35.798;139.446;2023-06-24T00:45:47;100407.48;;;27.84
48894;BMP280;34710;35.798;139.446;2023-06-24T00:48:12;100411.73;;;31.02
48894;BMP280;34710;35.798;139.446;2023-06-24T00:50:37;100415.26;;;30.02
48894;BMP280;34710;35.798;139.446;2023-06-24T00:53:02;100416.40;;;31.11
48894;BMP280;34710;35.798;139.446;2023-06-24T00:55:27;100407.16;;;31.86
48894;BMP280;34710;35.798;139.446;2023-06-24T00:57:55;100404.97;;;29.83
48894;BMP280;34710;35.798;139.446;2023-06-24T01:00:20;100403.33;;;31.61
48894;BMP280;34710;35.798;139.446;2023-06-24T01:02:42;100404.18;;;29.37
48894;BMP280;34710;35.798;139.446;2023-06-24T01:05:08;100401.79;;;28.93
48894;BMP280;34710;35.798;139.446;2023-06-24T01:07:32;100399.46;;;30.40
48894;BMP280;34710;35.798;139.446;2023-06-24T01:09:58;100395.01;;;32.35
48894;BMP280;34710;35.798;139.446;2023-06-24T01:12:23;100397.16;;;32.85
48894;BMP280;34710;35.798;139.446;2023-06-24T01:14:48;100395.07;;;32.73
48894;BMP280;34710;35.798;139.446;2023-06-24T01:17:14;100395.38;;;33.44
48894;BMP280;34710;35.798;139.446;2023-06-24T01:22:14;100386.89;;;33.61
48894;BMP280;34710;35.798;139.446;2023-06-24T01:24:41;100385.09;;;34.17
48894;BMP280;34710;35.798;139.446;2023-06-24T01:31:45;100386.31;;;32.25
48894;BMP280;34710;35.798;139.446;2023-06-24T01:34:15;100390.16;;;30.91
48894;BMP280;34710;35.798;139.446;2023-06-24T01:36:35;100383.68;;;31.85
48894;BMP280;34710;35.798;139.446;2023-06-24T01:39:02;100384.38;;;33.37
48894;BMP280;34710;35.798;139.446;2023-06-24T01:41:26;100382.98;;;33.02
48894;BMP280;34710;35.798;139.446;2023-06-24T01:43:48;100385.12;;;32.02
48894;BMP280;34710;35.798;139.446;2023-06-24T01:46:14;100387.99;;;30.81
48894;BMP280;34710;35.798;139.446;2023-06-24T01:48:40;100386.24;;;30.80
48894;BMP280;34710;35.798;139.446;2023-06-24T01:51:06;100383.62;;;31.00
48894;BMP280;34710;35.798;139.446;2023-06-24T01:53:32;100382.89;;;32.94
48894;BMP280;34710;35.798;139.446;2023-06-24T01:55:54;100379.98;;;32.51
48894;BMP280;34710;35.798;139.446;2023-06-24T01:58:19;100383.71;;;29.91
48894;BMP280;34710;35.798;139.446;2023-06-24T02:00:43;100381.20;;;31.47
48894;BMP280;34710;35.798;139.446;2023-06-24T02:03:09;100371.37;;;32.54
48894;BMP280;34710;35.798;139.446;2023-06-24T02:05:34;100363.67;;;34.62
48894;BMP280;34710;35.798;139.446;2023-06-24T02:07:59;100371.38;;;31.42
48894;BMP280;34710;35.798;139.446;2023-06-24T02:10:24;100372.26;;;32.78
48894;BMP280;34710;35.798;139.446;2023-06-24T02:12:52;100374.38;;;32.30
48894;BMP280;34710;35.798;139.446;2023-06-24T02:15:15;100377.42;;;31.20
48894;BMP280;34710;35.798;139.446;2023-06-24T02:17:40;100374.16;;;28.66
48894;BMP280;34710;35.798;139.446;2023-06-24T02:20:06;100370.47;;;28.54
48894;BMP280;34710;35.798;139.446;2023-06-24T02:22:30;100369.51;;;29.28
48894;BMP280;34710;35.798;139.446;2023-06-24T02:24:55;100369.53;;;31.86
48894;BMP280;34710;35.798;139.446;2023-06-24T02:27:20;100364.17;;;32.50
48894;BMP280;34710;35.798;139.446;2023-06-24T02:29:46;100363.92;;;32.84
48894;BMP280;34710;35.798;139.446;2023-06-24T02:32:10;100360.54;;;28.69
48894;BMP280;34710;35.798;139.446;2023-06-24T02:34:35;100362.41;;;29.22
48894;BMP280;34710;35.798;139.446;2023-06-24T02:37:00;100359.11;;;29.26
48894;BMP280;34710;35.798;139.446;2023-06-24T02:39:25;100357.76;;;29.53
48894;BMP280;34710;35.798;139.446;2023-06-24T02:41:51;100357.02;;;31.12
48894;BMP280;34710;35.798;139.446;2023-06-24T02:44:16;100359.63;;;30.08
48894;BMP280;34710;35.798;139.446;2023-06-24T02:46:41;100357.09;;;32.22
48894;BMP280;34710;35.798;139.446;2023-06-24T02:49:06;100360.21;;;28.44
48894;BMP280;34710;35.798;139.446;2023-06-24T02:51:31;100360.74;;;29.30
48894;BMP280;34710;35.798;139.446;2023-06-24T02:53:56;100354.56;;;29.60
48894;BMP280;34710;35.798;139.446;2023-06-24T02:56:21;100353.95;;;29.12
48894;BMP280;34710;35.798;139.446;2023-06-24T02:58:46;100346.32;;;30.07
48894;BMP280;34710;35.798;139.446;2023-06-24T03:01:11;100343.18;;;27.72
48894;BMP280;34710;35.798;139.446;2023-06-24T03:03:36;100339.44;;;29.48
48894;BMP280;34710;35.798;139.446;2023-06-24T03:06:01;100342.91;;;27.80
48894;BMP280;34710;35.798;139.446;2023-06-24T03:08:26;100342.22;;;28.17
48894;BMP280;34710;35.798;139.446;2023-06-24T03:10:51;100340.67;;;29.85
48894;BMP280;34710;35.798;139.446;2023-06-24T03:13:16;100342.09;;;29.05
48894;BMP280;34710;35.798;139.446;2023-06-24T03:15:41;100341.99;;;31.21
48894;BMP280;34710;35.798;139.446;2023-06-24T03:18:07;100348.75;;;29.23
48894;BMP280;34710;35.798;139.446;2023-06-24T03:20:32;100349.10;;;29.30
48894;BMP280;34710;35.798;139.446;2023-06-24T03:22:57;100346.46;;;28.56
48894;BMP280;34710;35.798;139.446;2023-06-24T03:25:22;100344.60;;;29.69
48894;BMP280;34710;35.798;139.446;2023-06-24T03:27:48;100335.67;;;28.78
48894;BMP280;34710;35.798;139.446;2023-06-24T03:30:13;100329.50;;;28.12
48894;BMP280;34710;35.798;139.446;2023-06-24T03:32:38;100331.66;;;28.89
48894;BMP280;34710;35.798;139.446;2023-06-24T03:35:04;100337.76;;;29.89
48894;BMP280;34710;35.798;139.446;2023-06-24T03:37:28;100338.26;;;29.11
48894;BMP280;34710;35.798;139.446;2023-06-24T03:39:55;100340.47;;;30.61
48894;BMP280;34710;35.798;139.446;2023-06-24T03:42:19;100341.48;;;28.59
48894;BMP280;34710;35.798;139.446;2023-06-24T03:44:45;100340.48;;;27.49
48894;BMP280;34710;35.798;139.446;2023-06-24T03:47:10;100341.99;;;27.89
48894;BMP280;34710;35.798;139.446;2023-06-24T03:49:35;100334.02;;;28.85
48894;BMP280;34710;35.798;139.446;2023-06-24T03:52:00;100333.25;;;28.92
48894;BMP280;34710;35.798;139.446;2023-06-24T03:54:26;100327.45;;;27.63
48894;BMP280;34710;35.798;139.446;2023-06-24T03:56:50;100325.68;;;27.90
48894;BMP280;34710;35.798;139.446;2023-06-24T03:59:16;100323.91;;;28.37
48894;BMP280;34710;35.798;139.446;2023-06-24T04:01:41;100323.46;;;30.01
48894;BMP280;34710;35.798;139.446;2023-06-24T04:04:06;100322.03;;;28.70
48894;BMP280;34710;35.798;139.446;2023-06-24T04:06:32;100328.04;;;27.24
48894;BMP280;34710;35.798;139.446;2023-06-24T04:08:58;100321.84;;;27.47
48894;BMP280;34710;35.798;139.446;2023-06-24T04:11:23;100330.41;;;26.57
48894;BMP280;34710;35.798;139.446;2023-06-24T04:13:48;100327.70;;;26.33
48894;BMP280;34710;35.798;139.446;2023-06-24T04:16:13;100325.27;;;27.04
48894;BMP280;34710;35.798;139.446;2023-06-24T04:18:38;100328.50;;;26.98
48894;BMP280;34710;35.798;139.446;2023-06-24T04:21:04;100327.11;;;27.83
48894;BMP280;34710;35.798;139.446;2023-06-24T04:23:29;100334.02;;;28.74
48894;BMP280;34710;35.798;139.446;2023-06-24T04:25:55;100339.34;;;28.37
48894;BMP280;34710;35.798;139.446;2023-06-24T04:28:19;100337.80;;;27.58
48894;BMP280;34710;35.798;139.446;2023-06-24T04:30:45;100337.76;;;27.26
48894;BMP280;34710;35.798;139.446;2023-06-24T04:33:10;100343.90;;;26.72
48894;BMP280;34710;35.798;139.446;2023-06-24T04:35:35;100332.75;;;28.16
48894;BMP280;34710;35.798;139.446;2023-06-24T04:38:00;100340.96;;;27.46
48894;BMP280;34710;35.798;139.446;2023-06-24T04:40:26;100347.31;;;27.33
48894;BMP280;34710;35.798;139.446;2023-06-24T04:42:51;100348.89;;;27.01
48894;BMP280;34710;35.798;139.446;2023-06-24T04:45:16;100343.47;;;28.35
48894;BMP280;34710;35.798;139.446;2023-06-24T04:47:42;100348.09;;;27.89
48894;BMP280;34710;35.798;139.446;2023-06-24T04:50:08;100341.91;;;28.17
48894;BMP280;34710;35.798;139.446;2023-06-24T04:52:32;100344.95;;;28.13
48894;BMP280;34710;35.798;139.446;2023-06-24T04:54:57;100342.32;;;27.61
48894;BMP280;34710;35.798;139.446;2023-06-24T04:57:27;100340.12;;;27.09
48894;BMP280;34710;35.798;139.446;2023-06-24T04:59:48;100334.84;;;28.55
48894;BMP280;34710;35.798;139.446;2023-06-24T05:02:13;100333.87;;;27.99
48894;BMP280;34710;35.798;139.446;2023-06-24T05:04:38;100342.95;;;28.47
48894;BMP280;34710;35.798;139.446;2023-06-24T05:07:03;100343.37;;;28.68
48894;BMP280;34710;35.798;139.446;2023-06-24T05:09:28;100338.26;;;29.28
48894;BMP280;34710;35.798;139.446;2023-06-24T05:11:54;100339.60;;;29.43
48894;BMP280;34710;35.798;139.446;2023-06-24T05:14:19;100338.83;;;28.32
48894;BMP280;34710;35.798;139.446;2023-06-24T05:16:44;100336.14;;;31.17
48894;BMP280;34710;35.798;139.446;2023-06-24T05:19:10;100334.51;;;30.61
48894;BMP280;34710;35.798;139.446;2023-06-24T05:21:36;100334.44;;;29.92
48894;BMP280;34710;35.798;139.446;2023-06-24T05:24:01;100337.56;;;30.50
48894;BMP280;34710;35.798;139.446;2023-06-24T05:26:27;100337.57;;;30.11
48894;BMP280;34710;35.798;139.446;2023-06-24T05:28:53;100332.17;;;31.16
48894;BMP280;34710;35.798;139.446;2023-06-24T05:31:17;100322.64;;;31.96
48894;BMP280;34710;35.798;139.446;2023-06-24T05:33:42;100329.43;;;31.17
48894;BMP280;34710;35.798;139.446;2023-06-24T05:36:08;100327.53;;;31.98
48894;BMP280;34710;35.798;139.446;2023-06-24T05:38:33;100326.82;;;31.18
48894;BMP280;34710;35.798;139.446;2023-06-24T05:40:58;100327.93;;;28.92
48894;BMP280;34710;35.798;139.446;2023-06-24T05:43:22;100325.20;;;29.64
48894;BMP280;34710;35.798;139.446;2023-06-24T05:45:50;100319.76;;;29.94
48894;BMP280;34710;35.798;139.446;2023-06-24T05:48:14;100320.84;;;30.44
48894;BMP280;34710;35.798;139.446;2023-06-24T05:50:40;100316.34;;;29.07
48894;BMP280;34710;35.798;139.446;2023-06-24T05:53:05;100313.54;;;29.75
48894;BMP280;34710;35.798;139.446;2023-06-24T05:55:30;100319.55;;;29.54
48894;BMP280;34710;35.798;139.446;2023-06-24T05:57:55;100323.23;;;30.69
48894;BMP280;34710;35.798;139.446;2023-06-24T06:00:20;100324.87;;;29.08
48894;BMP280;34710;35.798;139.446;2023-06-24T06:02:45;100325.83;;;29.00
48894;BMP280;34710;35.798;139.446;2023-06-24T06:05:10;100326.03;;;29.55
48894;BMP280;34710;35.798;139.446;2023-06-24T06:07:35;100326.62;;;30.85
48894;BMP280;34710;35.798;139.446;2023-06-24T06:10:01;100326.65;;;30.06
48894;BMP280;34710;35.798;139.446;2023-06-24T06:12:26;100324.44;;;31.08
48894;BMP280;34710;35.798;139.446;2023-06-24T06:14:51;100321.22;;;30.09
48894;BMP280;34710;35.798;139.446;2023-06-24T06:17:16;100318.06;;;28.06
48894;BMP280;34710;35.798;139.446;2023-06-24T06:19:42;100317.91;;;28.63
48894;BMP280;34710;35.798;139.446;2023-06-24T06:22:07;100316.72;;;30.07
48894;BMP280;34710;35.798;139.446;2023-06-24T06:24:32;100313.16;;;28.05
48894;BMP280;34710;35.798;139.446;2023-06-24T06:26:58;100318.06;;;27.65
48894;BMP280;34710;35.798;139.446;2023-06-24T06:29:23;100310.62;;;27.95
48894;BMP280;34710;35.798;139.446;2023-06-24T06:31:49;100312.06;;;27.73
48894;BMP280;34710;35.798;139.446;2023-06-24T06:34:14;100325.15;;;26.92
48894;BMP280;34710;35.798;139.446;2023-06-24T06:36:40;100320.31;;;27.77
48894;BMP280;34710;35.798;139.446;2023-06-24T06:39:05;100321.79;;;27.16
48894;BMP280;34710;35.798;139.446;2023-06-24T06:41:31;100315.99;;;27.36
48894;BMP280;34710;35.798;139.446;2023-06-24T06:43:56;100311.44;;;27.46
48894;BMP280;34710;35.798;139.446;2023-06-24T06:46:21;100314.24;;;26.91
48894;BMP280;34710;35.798;139.446;2023-06-24T06:48:46;100306.03;;;27.50
48894;BMP280;34710;35.798;139.446;2023-06-24T06:51:13;100305.60;;;28.27
48894;BMP280;34710;35.798;139.446;2023-06-24T06:53:37;100306.74;;;27.34
48894;BMP280;34710;35.798;139.446;2023-06-24T06:56:03;100305.89;;;29.11
48894;BMP280;34710;35.798;139.446;2023-06-24T06:58:28;100306.68;;;28.28
48894;BMP280;34710;35.798;139.446;2023-06-24T07:00:54;100307.55;;;26.71
48894;BMP280;34710;35.798;139.446;2023-06-24T07:03:19;100306.59;;;28.23
48894;BMP280;34710;35.798;139.446;2023-06-24T07:05:44;100299.87;;;28.48
48894;BMP280;34710;35.798;139.446;2023-06-24T07:08:09;100297.46;;;29.11
48894;BMP280;34710;35.798;139.446;2023-06-24T07:10:35;100300.71;;;28.81
48894;BMP280;34710;35.798;139.446;2023-06-24T07:13:00;100299.09;;;28.66
48894;BMP280;34710;35.798;139.446;2023-06-24T07:15:27;100303.52;;;28.94
48894;BMP280;34710;35.798;139.446;2023-06-24T07:17:52;100307.33;;;29.51
48894;BMP280;34710;35.798;139.446;2023-06-24T07:20:17;100304.16;;;29.39
48894;BMP280;34710;35.798;139.446;2023-06-24T07:22:42;100300.76;;;28.68
48894;BMP280;34710;35.798;139.446;2023-06-24T07:25:08;100304.27;;;28.96
48894;BMP280;34710;35.798;139.446;2023-06-24T07:27:32;100305.61;;;26.91
48894;BMP280;34710;35.798;139.446;2023-06-24T07:29:58;100306.91;;;26.11
48894;BMP280;34710;35.798;139.446;2023-06-24T07:32:24;100308.96;;;27.08
48894;BMP280;34710;35.798;139.446;2023-06-24T07:34:49;100315.74;;;26.26
48894;BMP280;34710;35.798;139.446;2023-06-24T07:37:14;100310.54;;;26.10
48894;BMP280;34710;35.798;139.446;2023-06-24T07:39:40;100308.96;;;25.87
48894;BMP280;34710;35.798;139.446;2023-06-24T07:42:06;100303.24;;;25.52
48894;BMP280;34710;35.798;139.446;2023-06-24T07:44:30;100299.27;;;26.00
48894;BMP280;34710;35.798;139.446;2023-06-24T07:46:55;100297.51;;;26.25
48894;BMP280;34710;35.798;139.446;2023-06-24T07:49:21;100296.56;;;26.23
48894;BMP280;34710;35.798;139.446;2023-06-24T07:51:46;100297.56;;;27.61
48894;BMP280;34710;35.798;139.446;2023-06-24T07:54:12;100297.32;;;26.96
48894;BMP280;34710;35.798;139.446;2023-06-24T07:56:38;100293.31;;;27.15
48894;BMP280;34710;35.798;139.446;2023-06-24T07:59:02;100299.10;;;26.39
48894;BMP280;34710;35.798;139.446;2023-06-24T08:01:28;100300.58;;;26.26
48894;BMP280;34710;35.798;139.446;2023-06-24T08:03:53;100307.84;;;26.32
48894;BMP280;34710;35.798;139.446;2023-06-24T08:06:19;100305.34;;;25.85
48894;BMP280;34710;35.798;139.446;2023-06-24T08:08:45;100302.46;;;25.70
48894;BMP280;34710;35.798;139.446;2023-06-24T08:11:10;100305.95;;;27.65
48894;BMP280;34710;35.798;139.446;2023-06-24T08:13:36;100301.60;;;27.90
48894;BMP280;34710;35.798;139.446;2023-06-24T08:16:01;100303.97;;;27.08
48894;BMP280;34710;35.798;139.446;2023-06-24T08:18:27;100312.07;;;27.81
48894;BMP280;34710;35.798;139.446;2023-06-24T08:20:53;100322.43;;;26.49
48894;BMP280;34710;35.798;139.446;2023-06-24T08:23:19;100328.23;;;27.05
48894;BMP280;34710;35.798;139.446;2023-06-24T08:25:43;100329.68;;;27.50
48894;BMP280;34710;35.798;139.446;2023-06-24T08:28:10;100326.47;;;27.68
48894;BMP280;34710;35.798;139.446;2023-06-24T08:30:35;100330.25;;;27.13
48894;BMP280;34710;35.798;139.446;2023-06-24T08:32:59;100331.29;;;27.94
48894;BMP280;34710;35.798;139.446;2023-06-24T08:35:25;100341.13;;;27.14
48894;BMP280;34710;35.798;139.446;2023-06-24T08:37:50;100342.56;;;26.11
48894;BMP280;34710;35.798;139.446;2023-06-24T08:40:15;100340.57;;;27.36
48894;BMP280;34710;35.798;139.446;2023-06-24T08:42:42;100339.06;;;25.84
48894;BMP280;34710;35.798;139.446;2023-06-24T08:45:07;100337.72;;;26.53
48894;BMP280;34710;35.798;139.446;2023-06-24T08:47:32;100343.90;;;26.03
48894;BMP280;34710;35.798;139.446;2023-06-24T08:50:03;100345.46;;;26.40
48894;BMP280;34710;35.798;139.446;2023-06-24T08:52:26;100345.72;;;26.72
48894;BMP280;34710;35.798;139.446;2023-06-24T08:54:52;100348.21;;;26.24
48894;BMP280;34710;35.798;139.446;2023-06-24T08:57:13;100343.64;;;27.31
48894;BMP280;34710;35.798;139.446;2023-06-24T08:59:38;100340.22;;;27.17
48894;BMP280;34710;35.798;139.446;2023-06-24T09:02:04;100342.61;;;26.25
48894;BMP280;34710;35.798;139.446;2023-06-24T09:04:30;100350.75;;;26.67
48894;BMP280;34710;35.798;139.446;2023-06-24T09:06:55;100361.33;;;26.33
48894;BMP280;34710;35.798;139.446;2023-06-24T09:09:21;100369.77;;;27.26
48894;BMP280;34710;35.798;139.446;2023-06-24T09:11:52;100379.94;;;26.83
48894;BMP280;34710;35.798;139.446;2023-06-24T09:14:13;100379.95;;;27.18
48894;BMP280;34710;35.798;139.446;2023-06-24T09:16:37;100373.20;;;27.69
48894;BMP280;34710;35.798;139.446;2023-06-24T09:19:03;100374.67;;;27.04
48894;BMP280;34710;35.798;139.446;2023-06-24T09:21:29;100377.12;;;27.84
48894;BMP280;34710;35.798;139.446;2023-06-24T09:23:55;100382.77;;;27.65
48894;BMP280;34710;35.798;139.446;2023-06-24T09:26:19;100391.01;;;26.83
48894;BMP280;34710;35.798;139.446;2023-06-24T09:28:49;100385.65;;;26.51
48894;BMP280;34710;35.798;139.446;2023-06-24T09:31:10;100372.94;;;27.54
48894;BMP280;34710;35.798;139.446;2023-06-24T09:33:35;100372.19;;;28.15
48894;BMP280;34710;35.798;139.446;2023-06-24T09:36:03;100377.22;;;27.84
48894;BMP280;34710;35.798;139.446;2023-06-24T09:38:32;100385.82;;;26.84
48894;BMP280;34710;35.798;139.446;2023-06-24T09:41:00;100385.24;;;27.31
48894;BMP280;34710;35.798;139.446;2023-06-24T09:43:20;100381.02;;;27.67
48894;BMP280;34710;35.798;139.446;2023-06-24T09:45:42;100386.50;;;27.27
48894;BMP280;34710;35.798;139.446;2023-06-24T09:48:06;100386.05;;;27.51
48894;BMP280;34710;35.798;139.446;2023-06-24T09:50:32;100386.78;;;26.22
48894;BMP280;34710;35.798;139.446;2023-06-24T09:52:58;100380.28;;;26.08
48894;BMP280;34710;35.798;139.446;2023-06-24T09:55:23;100382.53;;;27.17
48894;BMP280;34710;35.798;139.446;2023-06-24T09:57:49;100381.17;;;27.81
48894;BMP280;34710;35.798;139.446;2023-06-24T10:00:16;100382.29;;;27.60
48894;BMP280;34710;35.798;139.446;2023-06-24T10:02:38;100380.51;;;27.43
48894;BMP280;34710;35.798;139.446;2023-06-24T10:05:04;100385.78;;;26.05
48894;BMP280;34710;35.798;139.446;2023-06-24T10:07:29;100393.69;;;25.39
48894;BMP280;34710;35.798;139.446;2023-06-24T10:09:54;100390.58;;;27.71
48894;BMP280;34710;35.798;139.446;2023-06-24T10:12:20;100390.36;;;28.27
48894;BMP280;34710;35.798;139.446;2023-06-24T10:14:45;100396.44;;;27.10
48894;BMP280;34710;35.798;139.446;2023-06-24T10:17:12;100398.18;;;27.44
48894;BMP280;34710;35.798;139.446;2023-06-24T10:19:41;100402.86;;;25.90
48894;BMP280;34710;35.798;139.446;2023-06-24T10:22:03;100404.50;;;27.39
48894;BMP280;34710;35.798;139.446;2023-06-24T10:24:30;100404.18;;;28.06
48894;BMP280;34710;35.798;139.446;2023-06-24T10:26:55;100402.19;;;27.79
48894;BMP280;34710;35.798;139.446;2023-06-24T10:29:19;100404.79;;;28.44
48894;BMP280;34710;35.798;139.446;2023-06-24T10:31:54;100409.41;;;27.65
48894;BMP280;34710;35.798;139.446;2023-06-24T10:36:38;100418.88;;;27.50
48894;BMP280;34710;35.798;139.446;2023-06-24T10:39:02;100424.24;;;27.60
48894;BMP280;34710;35.798;139.446;2023-06-24T10:41:26;100429.29;;;26.46
48894;BMP280;34710;35.798;139.446;2023-06-24T10:43:51;100430.51;;;27.30
48894;BMP280;34710;35.798;139.446;2023-06-24T10:46:18;100439.25;;;26.00
48894;BMP280;34710;35.798;139.446;2023-06-24T10:48:42;100446.09;;;26.17
48894;BMP280;34710;35.798;139.446;2023-06-24T10:51:08;100447.36;;;27.37
48894;BMP280;34710;35.798;139.446;2023-06-24T10:53:33;100445.31;;;27.52
48894;BMP280;34710;35.798;139.446;2023-06-24T10:55:59;100451.24;;;28.12
48894;BMP280;34710;35.798;139.446;2023-06-24T10:58:23;100463.86;;;26.12
48894;BMP280;34710;35.798;139.446;2023-06-24T11:00:49;100467.42;;;27.48
48894;BMP280;34710;35.798;139.446;2023-06-24T11:03:15;100478.77;;;27.54
48894;BMP280;34710;35.798;139.446;2023-06-24T11:05:40;100483.46;;;27.22
48894;BMP280;34710;35.798;139.446;2023-06-24T11:08:06;100486.94;;;27.23
48894;BMP280;34710;35.798;139.446;2023-06-24T11:10:31;100479.67;;;27.51
48894;BMP280;34710;35.798;139.446;2023-06-24T11:12:56;100481.52;;;27.42
48894;BMP280;34710;35.798;139.446;2023-06-24T11:15:22;100485.97;;;27.15
48894;BMP280;34710;35.798;139.446;2023-06-24T11:17:50;100490.60;;;26.19
48894;BMP280;34710;35.798;139.446;2023-06-24T11:20:13;100494.20;;;26.48
48894;BMP280;34710;35.798;139.446;2023-06-24T11:22:37;100495.72;;;25.99
48894;BMP280;34710;35.798;139.446;2023-06-24T11:25:02;100498.73;;;27.09
48894;BMP280;34710;35.798;139.446;2023-06-24T11:27:29;100501.56;;;27.47
48894;BMP280;34710;35.798;139.446;2023-06-24T11:29:54;100496.77;;;27.95
48894;BMP280;34710;35.798;139.446;2023-06-24T11:32:19;100492.93;;;27.85
48894;BMP280;34710;35.798;139.446;2023-06-24T11:34:44;100498.17;;;26.05
48894;BMP280;34710;35.798;139.446;2023-06-24T11:37:12;100496.41;;;25.94
48894;BMP280;34710;35.798;139.446;2023-06-24T11:39:37;100498.02;;;26.81
48894;BMP280;34710;35.798;139.446;2023-06-24T11:42:01;100496.92;;;26.83
48894;BMP280;34710;35.798;139.446;2023-06-24T11:44:26;100498.84;;;27.38
48894;BMP280;34710;35.798;139.446;2023-06-24T11:46:53;100501.86;;;28.00
48894;BMP280;34710;35.798;139.446;2023-06-24T11:49:18;100504.79;;;27.77
48894;BMP280;34710;35.798;139.446;2023-06-24T11:51:49;100508.41;;;26.77
48894;BMP280;34710;35.798;139.446;2023-06-24T11:54:09;100511.52;;;25.91
48894;BMP280;34710;35.798;139.446;2023-06-24T11:56:36;100517.03;;;27.01
48894;BMP280;34710;35.798;139.446;2023-06-24T11:58:59;100523.25;;;25.85
48894;BMP280;34710;35.798;139.446;2023-06-24T12:01:30;100524.64;;;25.02
48894;BMP280;34710;35.798;139.446;2023-06-24T12:03:50;100521.26;;;26.05
48894;BMP280;34710;35.798;139.446;2023-06-24T12:06:15;100519.67;;;25.50
48894;BMP280;34710;35.798;139.446;2023-06-24T12:08:40;100525.06;;;26.49
48894;BMP280;34710;35.798;139.446;2023-06-24T12:11:06;100527.12;;;27.16
48894;BMP280;34710;35.798;139.446;2023-06-24T12:13:32;100531.94;;;27.52
48894;BMP280;34710;35.798;139.446;2023-06-24T12:15:57;100531.00;;;26.64
48894;BMP280;34710;35.798;139.446;2023-06-24T12:18:23;100530.84;;;26.31
48894;BMP280;34710;35.798;139.446;2023-06-24T12:20:48;100533.74;;;26.42
48894;BMP280;34710;35.798;139.446;2023-06-24T12:23:13;100532.65;;;23.62
48894;BMP280;34710;35.798;139.446;2023-06-24T12:25:40;100538.69;;;25.20
48894;BMP280;34710;35.798;139.446;2023-06-24T12:28:05;100544.99;;;26.43
48894;BMP280;34710;35.798;139.446;2023-06-24T12:30:30;100551.64;;;27.13
48894;BMP280;34710;35.798;139.446;2023-06-24T12:32:56;100552.60;;;27.46
48894;BMP280;34710;35.798;139.446;2023-06-24T12:35:21;100555.26;;;27.53
48894;BMP280;34710;35.798;139.446;2023-06-24T12:37:47;100558.11;;;27.65
48894;BMP280;34710;35.798;139.446;2023-06-24T12:40:12;100555.83;;;27.64
48894;BMP280;34710;35.798;139.446;2023-06-24T12:42:37;100548.45;;;27.59
48894;BMP280;34710;35.798;139.446;2023-06-24T12:45:02;100549.26;;;27.47
48894;BMP280;34710;35.798;139.446;2023-06-24T12:47:27;100554.11;;;27.57
48894;BMP280;34710;35.798;139.446;2023-06-24T12:49:53;100556.50;;;27.61
48894;BMP280;34710;35.798;139.446;2023-06-24T12:52:18;100555.18;;;27.80
48894;BMP280;34710;35.798;139.446;2023-06-24T12:54:44;100552.94;;;27.73
48894;BMP280;34710;35.798;139.446;2023-06-24T12:57:09;100554.55;;;27.63
48894;BMP280;34710;35.798;139.446;2023-06-24T12:59:34;100555.38;;;27.64
48894;BMP280;34710;35.798;139.446;2023-06-24T13:02:00;100551.04;;;27.54
48894;BMP280;34710;35.798;139.446;2023-06-24T13:04:25;100544.65;;;27.42
48894;BMP280;34710;35.798;139.446;2023-06-24T13:06:52;100550.13;;;27.08
48894;BMP280;34710;35.798;139.446;2023-06-24T13:09:16;100554.51;;;26.84
48894;BMP280;34710;35.798;139.446;2023-06-24T13:11:41;100554.56;;;27.26
48894;BMP280;34710;35.798;139.446;2023-06-24T13:14:07;100548.96;;;27.41
48894;BMP280;34710;35.798;139.446;2023-06-24T13:16:32;100546.90;;;27.14
48894;BMP280;34710;35.798;139.446;2023-06-24T13:18:57;100546.50;;;27.27
48894;BMP280;34710;35.798;139.446;2023-06-24T13:21:23;100549.76;;;27.03
48894;BMP280;34710;35.798;139.446;2023-06-24T13:23:49;100554.97;;;27.43
48894;BMP280;34710;35.798;139.446;2023-06-24T13:26:14;100551.42;;;27.28
48894;BMP280;34710;35.798;139.446;2023-06-24T13:28:40;100546.27;;;27.69
48894;BMP280;34710;35.798;139.446;2023-06-24T13:31:04;100544.94;;;27.19